createdAt,value
2023-03-16T00:02:19.252Z,98154.13
2023-03-16T00:04:47.515Z,98165.34
2023-03-16T00:07:17.640Z,98171.34
2023-03-16T00:09:46.000Z,98172.38
2023-03-16T00:12:18.024Z,98166.81
2023-03-16T00:14:47.547Z,98168.41
2023-03-16T00:17:20.279Z,98168.84
2023-03-16T00:19:51.304Z,98166.81
2023-03-16T00:22:21.808Z,98161.59
2023-03-16T00:24:50.441Z,98166.09
2023-03-16T00:27:18.541Z,98159.91
2023-03-16T00:29:48.182Z,98171.34
2023-03-16T00:32:17.988Z,98167.06
2023-03-16T00:34:47.010Z,98173.09
2023-03-16T00:37:17.333Z,98172.38
2023-03-16T00:39:47.895Z,98176.53
2023-03-16T00:42:17.877Z,98180.19
2023-03-16T00:44:46.047Z,98174.88
2023-03-16T00:47:15.522Z,98177.28
2023-03-16T00:49:45.691Z,98177.13
2023-03-16T00:52:15.136Z,98180.16
2023-03-16T00:54:46.621Z,98183.81
2023-03-16T00:57:19.046Z,98173.41
2023-03-16T00:59:48.605Z,98176.59
2023-03-16T01:02:19.428Z,98181.34
2023-03-16T01:04:47.706Z,98178.25
2023-03-16T01:07:16.064Z,98186.13
2023-03-16T01:09:44.870Z,98185.53
2023-03-16T01:12:16.044Z,98186.78
2023-03-16T01:14:46.013Z,98188.38
2023-03-16T01:17:15.312Z,98186.19
2023-03-16T01:19:44.261Z,98184.28
2023-03-16T01:22:13.147Z,98190.44
2023-03-16T01:24:42.676Z,98194.09
2023-03-16T01:27:11.028Z,98196.16
2023-03-16T01:29:43.664Z,98202.47
2023-03-16T01:32:12.201Z,98203.75
2023-03-16T01:34:40.513Z,98198.22
2023-03-16T01:37:09.253Z,98205.50
2023-03-16T01:39:37.589Z,98205.81
2023-03-16T01:42:06.030Z,98203.25
2023-03-16T01:44:54.624Z,98198.06
2023-03-16T01:47:23.602Z,98206.13
2023-03-16T01:49:55.091Z,98204.69
2023-03-16T01:52:26.279Z,98208.66
2023-03-16T01:54:58.014Z,98205.94
2023-03-16T01:57:30.548Z,98216.22
2023-03-16T02:00:08.552Z,98211.31
2023-03-16T02:02:37.095Z,98221.78
2023-03-16T02:05:13.603Z,98228.72
2023-03-16T02:07:45.091Z,98230.13
2023-03-16T02:10:15.628Z,98221.59
2023-03-16T02:12:44.350Z,98230.75
2023-03-16T02:15:15.868Z,98232.03
2023-03-16T02:17:45.949Z,98229.81
2023-03-16T02:20:26.842Z,98237.25
2023-03-16T02:22:56.467Z,98242.91
2023-03-16T02:25:28.255Z,98240.56
2023-03-16T02:28:04.423Z,98250.50
2023-03-16T02:30:34.148Z,98246.53
2023-03-16T02:33:02.726Z,98253.16
2023-03-16T02:35:31.364Z,98255.97
2023-03-16T02:37:59.468Z,98253.47
2023-03-16T02:40:30.549Z,98259.47
2023-03-16T02:43:04.099Z,98272.50
2023-03-16T02:45:39.942Z,98268.38
2023-03-16T02:48:14.811Z,98271.06
2023-03-16T02:50:48.239Z,98269.78
2023-03-16T02:53:17.006Z,98277.06
2023-03-16T02:55:45.988Z,98286.81
2023-03-16T02:58:14.228Z,98285.53
2023-03-16T03:00:45.460Z,98290.22
2023-03-16T03:03:14.334Z,98298.75
2023-03-16T03:05:42.672Z,98290.03
2023-03-16T03:08:10.873Z,98293.78
2023-03-16T03:10:38.960Z,98302.56
2023-03-16T03:13:07.856Z,98302.00
2023-03-16T03:15:36.410Z,98313.94
2023-03-16T03:18:05.923Z,98316.44
2023-03-16T03:20:34.630Z,98324.13
2023-03-16T03:23:03.272Z,98329.41
2023-03-16T03:25:34.828Z,98338.28
2023-03-16T03:28:05.596Z,98341.66
2023-03-16T03:30:34.382Z,98349.94
2023-03-16T03:33:02.828Z,98353.56
2023-03-16T03:35:32.428Z,98349.53
2023-03-16T03:38:00.619Z,98365.22
2023-03-16T03:40:28.936Z,98366.50
2023-03-16T03:42:57.169Z,98375.72
2023-03-16T03:45:25.402Z,98366.28
2023-03-16T03:47:55.111Z,98373.31
2023-03-16T03:50:23.411Z,98377.25
2023-03-16T03:52:52.889Z,98380.13
2023-03-16T03:55:20.951Z,98393.59
2023-03-16T03:57:49.053Z,98395.38
2023-03-16T04:00:20.930Z,98402.94
2023-03-16T04:02:49.558Z,98401.44
2023-03-16T04:05:17.919Z,98407.97
2023-03-16T04:07:46.071Z,98416.34
2023-03-16T04:10:15.780Z,98422.06
2023-03-16T04:12:43.923Z,98427.22
2023-03-16T04:15:13.792Z,98434.50
2023-03-16T04:17:42.304Z,98437.03
2023-03-16T04:20:14.634Z,98442.72
2023-03-16T04:22:43.880Z,98451.91
2023-03-16T04:25:12.490Z,98453.00
2023-03-16T04:27:42.257Z,98451.22
2023-03-16T04:30:13.796Z,98456.66
2023-03-16T04:32:42.566Z,98464.72
2023-03-16T04:35:11.349Z,98469.78
2023-03-16T04:37:39.424Z,98477.56
2023-03-16T04:40:12.007Z,98477.63
2023-03-16T04:42:41.695Z,98489.41
2023-03-16T04:45:10.763Z,98492.91
2023-03-16T04:47:39.088Z,98493.47
2023-03-16T04:50:08.794Z,98489.00
2023-03-16T04:52:36.937Z,98505.56
2023-03-16T04:55:06.160Z,98497.91
2023-03-16T04:57:35.252Z,98494.28
2023-03-16T05:00:11.811Z,98504.44
2023-03-16T05:02:40.165Z,98503.13
2023-03-16T05:05:08.730Z,98515.16
2023-03-16T05:07:36.817Z,98503.47
2023-03-16T05:10:05.333Z,98506.97
2023-03-16T05:12:33.505Z,98503.78
2023-03-16T05:15:01.897Z,98516.28
2023-03-16T05:17:31.542Z,98502.91
2023-03-16T05:19:59.811Z,98522.38
2023-03-16T05:22:27.978Z,98525.88
2023-03-16T05:24:56.060Z,98528.59
2023-03-16T05:27:24.827Z,98516.16
2023-03-16T05:29:52.884Z,98542.38
2023-03-16T05:32:20.960Z,98532.44
2023-03-16T05:34:53.182Z,98534.31
2023-03-16T05:37:21.268Z,98547.09
2023-03-16T05:39:49.313Z,98553.53
2023-03-16T05:42:17.357Z,98547.94
2023-03-16T05:44:46.077Z,98549.56
2023-03-16T05:47:14.459Z,98558.88
2023-03-16T05:49:42.473Z,98567.69
2023-03-16T05:52:12.023Z,98568.25
2023-03-16T05:54:40.408Z,98569.03
2023-03-16T05:57:08.521Z,98578.94
2023-03-16T05:59:36.905Z,98571.19
2023-03-16T06:02:04.953Z,98582.88
2023-03-16T06:04:33.024Z,98587.13
2023-03-16T06:07:01.125Z,98595.91
2023-03-16T06:09:30.827Z,98601.25
2023-03-16T06:11:58.897Z,98601.47
2023-03-16T06:14:26.983Z,98595.84
2023-03-16T06:16:55.116Z,98611.59
2023-03-16T06:19:23.278Z,98611.31
2023-03-16T06:21:51.375Z,98619.88
2023-03-16T06:24:19.365Z,98613.75
2023-03-16T06:26:48.883Z,98623.56
2023-03-16T06:29:17.066Z,98629.09
2023-03-16T06:31:45.598Z,98635.19
2023-03-16T06:34:13.583Z,98639.69
2023-03-16T06:36:41.702Z,98648.75
2023-03-16T06:39:09.885Z,98656.94
2023-03-16T06:41:38.305Z,98663.56
2023-03-16T06:44:07.766Z,98667.00
2023-03-16T06:46:35.909Z,98679.28
2023-03-16T06:49:04.410Z,98687.81
2023-03-16T06:51:32.734Z,98687.50
2023-03-16T06:54:01.564Z,98689.63
2023-03-16T06:56:29.649Z,98698.97
2023-03-16T06:58:57.913Z,98696.56
2023-03-16T07:01:27.765Z,98708.63
2023-03-16T07:03:55.906Z,98702.22
2023-03-16T07:06:24.012Z,98703.84
2023-03-16T07:08:52.050Z,98715.59
2023-03-16T07:11:20.097Z,98720.13
2023-03-16T07:13:48.246Z,98723.94
2023-03-16T07:16:16.516Z,98721.53
2023-03-16T07:18:46.141Z,98732.78
2023-03-16T07:21:14.424Z,98731.44
2023-03-16T07:23:42.538Z,98739.22
2023-03-16T07:26:12.120Z,98737.88
2023-03-16T07:28:40.370Z,98745.63
2023-03-16T07:31:09.636Z,98741.38
2023-03-16T07:33:40.699Z,98740.34
2023-03-16T07:36:11.116Z,98752.63
2023-03-16T07:38:40.032Z,98749.44
2023-03-16T07:41:08.562Z,98751.00
2023-03-16T07:43:36.692Z,98754.69
2023-03-16T07:46:05.582Z,98754.91
2023-03-16T07:48:33.864Z,98758.31
2023-03-16T07:51:01.944Z,98756.44
2023-03-16T07:53:32.099Z,98765.31
2023-03-16T07:56:00.222Z,98770.13
2023-03-16T07:58:28.457Z,98770.47
2023-03-16T08:00:58.963Z,98778.72
2023-03-16T08:03:27.639Z,98775.28
2023-03-16T08:05:56.325Z,98780.59
2023-03-16T08:08:24.530Z,98779.16
2023-03-16T08:10:56.549Z,98780.19
2023-03-16T08:13:27.168Z,98783.09
2023-03-16T08:15:58.667Z,98788.63
2023-03-16T08:18:27.942Z,98797.69
2023-03-16T08:20:56.092Z,98794.78
2023-03-16T08:23:25.035Z,98800.41
2023-03-16T08:25:56.024Z,98802.03
2023-03-16T08:28:26.038Z,98811.09
2023-03-16T08:30:55.639Z,98808.66
2023-03-16T08:33:24.129Z,98810.81
2023-03-16T08:35:52.297Z,98815.81
2023-03-16T08:38:20.379Z,98817.63
2023-03-16T08:40:48.978Z,98828.56
2023-03-16T08:43:19.868Z,98828.50
2023-03-16T08:45:49.325Z,98823.03
2023-03-16T08:48:18.371Z,98830.16
2023-03-16T08:50:46.566Z,98840.78
2023-03-16T08:53:15.747Z,98832.25
2023-03-16T08:55:44.147Z,98842.22
2023-03-16T08:58:14.090Z,98837.88
2023-03-16T09:00:46.466Z,98847.81
2023-03-16T09:03:15.689Z,98848.13
2023-03-16T09:05:43.905Z,98846.81
2023-03-16T09:08:12.751Z,98847.59
2023-03-16T09:10:41.028Z,98847.59
2023-03-16T09:13:09.257Z,98854.97
2023-03-16T09:15:37.702Z,98856.59
2023-03-16T09:18:07.246Z,98870.19
2023-03-16T09:20:36.017Z,98868.28
2023-03-16T09:23:04.850Z,98872.28
2023-03-16T09:25:33.651Z,98876.53
2023-03-16T09:28:01.897Z,98882.06
2023-03-16T09:30:30.247Z,98877.47
2023-03-16T09:32:58.514Z,98890.19
2023-03-16T09:35:28.299Z,98881.38
2023-03-16T09:38:06.196Z,98888.41
2023-03-16T09:40:38.372Z,98889.59
2023-03-16T09:43:24.571Z,98886.41
2023-03-16T09:46:01.502Z,98890.47
2023-03-16T09:48:33.904Z,98887.94
2023-03-16T09:51:06.539Z,98897.19
2023-03-16T09:53:38.198Z,98896.69
2023-03-16T09:56:09.711Z,98907.91
2023-03-16T09:58:38.571Z,98910.72
2023-03-16T10:01:13.618Z,98909.34
2023-03-16T10:04:00.819Z,98910.84
2023-03-16T10:06:31.474Z,98913.00
2023-03-16T10:09:10.570Z,98910.91
2023-03-16T10:11:43.167Z,98910.59
2023-03-16T10:14:17.910Z,98912.13
2023-03-16T10:16:50.619Z,98919.16
2023-03-16T10:19:23.418Z,98918.31
2023-03-16T10:21:58.102Z,98929.38
2023-03-16T10:24:39.414Z,98921.16
2023-03-16T10:27:09.664Z,98925.34
2023-03-16T10:29:38.804Z,98924.34
2023-03-16T10:32:16.623Z,98927.44
2023-03-16T10:34:48.276Z,98932.22
2023-03-16T10:37:17.952Z,98934.81
2023-03-16T10:39:46.960Z,98933.06
2023-03-16T10:42:18.050Z,98931.84
2023-03-16T10:44:46.762Z,98932.84
2023-03-16T10:47:20.226Z,98932.78
2023-03-16T10:49:51.444Z,98930.47
2023-03-16T10:52:25.947Z,98931.56
2023-03-16T10:54:57.793Z,98930.78
2023-03-16T10:57:27.514Z,98927.78
2023-03-16T11:00:00.888Z,98931.84
2023-03-16T11:02:34.213Z,98930.75
2023-03-16T11:05:14.231Z,98933.63
2023-03-16T11:07:50.037Z,98940.00
2023-03-16T11:10:29.256Z,98938.44
2023-03-16T11:13:04.369Z,98939.22
2023-03-16T11:15:40.052Z,98940.63
2023-03-16T11:18:18.040Z,98939.03
2023-03-16T11:20:47.351Z,98940.41
2023-03-16T11:23:19.006Z,98937.63
2023-03-16T11:25:51.947Z,98938.13
2023-03-16T11:28:29.862Z,98939.94
2023-03-16T11:31:07.539Z,98944.31
2023-03-16T11:33:36.089Z,98943.00
2023-03-16T11:36:20.432Z,98948.00
2023-03-16T11:38:57.602Z,98943.63
2023-03-16T11:41:37.740Z,98946.31
2023-03-16T11:44:14.389Z,98948.81
2023-03-16T11:46:48.485Z,98952.56
2023-03-16T11:49:42.995Z,98953.56
2023-03-16T11:52:20.689Z,98949.00
2023-03-16T11:55:01.534Z,98947.50
2023-03-16T11:57:45.838Z,98951.06
2023-03-16T12:00:21.711Z,98946.91
2023-03-16T12:03:03.480Z,98959.63
2023-03-16T12:05:47.487Z,98952.75
2023-03-16T12:08:29.128Z,98963.41
2023-03-16T12:11:04.711Z,98953.47
2023-03-16T12:13:45.999Z,98955.94
2023-03-16T12:16:21.264Z,98967.22
2023-03-16T12:18:53.457Z,98960.13
2023-03-16T12:21:24.553Z,98966.91
2023-03-16T12:23:55.347Z,98977.66
2023-03-16T12:26:30.309Z,98975.88
2023-03-16T12:29:08.641Z,98981.34
2023-03-16T12:31:46.114Z,98982.75
2023-03-16T12:34:25.692Z,98993.00
2023-03-16T12:37:13.029Z,98993.13
2023-03-16T12:39:56.498Z,98991.22
2023-03-16T12:42:57.321Z,98995.19
2023-03-16T12:45:35.416Z,98999.19
2023-03-16T12:48:15.743Z,98999.38
2023-03-16T12:50:52.203Z,99003.84
2023-03-16T12:53:30.837Z,99007.38
2023-03-16T12:55:58.999Z,99008.25
2023-03-16T12:58:28.418Z,99014.50
2023-03-16T13:01:00.792Z,99020.00
2023-03-16T13:03:29.742Z,99021.78
2023-03-16T13:06:01.041Z,99020.69
2023-03-16T13:08:30.734Z,99020.59
2023-03-16T13:11:04.560Z,99033.78
2023-03-16T13:13:34.342Z,99029.53
2023-03-16T13:16:11.166Z,99030.91
2023-03-16T13:18:44.860Z,99037.88
2023-03-16T13:21:19.181Z,99039.25
2023-03-16T13:23:59.613Z,99042.19
2023-03-16T13:26:39.918Z,99055.22
2023-03-16T13:29:20.837Z,99048.47
2023-03-16T13:31:51.260Z,99053.84
2023-03-16T13:34:22.735Z,99057.03
2023-03-16T13:36:56.956Z,99056.53
2023-03-16T13:39:27.450Z,99057.53
2023-03-16T13:42:00.822Z,99056.53
2023-03-16T13:44:30.205Z,99060.28
2023-03-16T13:47:05.149Z,99065.66
2023-03-16T13:49:33.548Z,99064.59
2023-03-16T13:52:06.014Z,99066.25
2023-03-16T13:54:34.253Z,99076.56
2023-03-16T13:57:07.377Z,99077.22
2023-03-16T13:59:36.120Z,99077.06
2023-03-16T14:02:19.557Z,99088.59
2023-03-16T14:04:48.255Z,99079.81
2023-03-16T14:07:18.596Z,99091.34
2023-03-16T14:09:49.843Z,99084.19
2023-03-16T14:12:20.259Z,99092.28
2023-03-16T14:14:51.384Z,99099.03
2023-03-16T14:17:22.595Z,99096.91
2023-03-16T14:19:52.754Z,99096.41
2023-03-16T14:22:24.280Z,99097.50
2023-03-16T14:24:57.013Z,99096.91
2023-03-16T14:27:30.659Z,99101.34
2023-03-16T14:30:02.378Z,99108.03
2023-03-16T14:32:34.532Z,99112.03
2023-03-16T14:35:13.828Z,99113.06
2023-03-16T14:37:43.140Z,99108.81
2023-03-16T14:40:25.428Z,99119.41
2023-03-16T14:42:55.962Z,99115.41
2023-03-16T14:45:24.673Z,99109.28
2023-03-16T14:47:54.446Z,99123.28
2023-03-16T14:50:26.489Z,99126.78
2023-03-16T14:52:57.542Z,99125.97
2023-03-16T14:55:25.995Z,99122.50
2023-03-16T14:57:54.479Z,99133.53
2023-03-16T15:00:23.531Z,99142.38
2023-03-16T15:03:02.633Z,99135.75
2023-03-16T15:05:35.312Z,99137.84
2023-03-16T15:08:06.571Z,99140.25
2023-03-16T15:10:37.236Z,99143.16
2023-03-16T15:13:16.868Z,99147.44
2023-03-16T15:15:47.204Z,99155.00
2023-03-16T15:18:16.953Z,99157.38
2023-03-16T15:20:49.736Z,99159.22
2023-03-16T15:23:18.625Z,99162.91
2023-03-16T15:25:47.714Z,99168.28
2023-03-16T15:28:17.728Z,99170.75
2023-03-16T15:30:47.527Z,99172.69
2023-03-16T15:33:18.822Z,99172.22
2023-03-16T15:35:49.434Z,99180.34
2023-03-16T15:38:22.016Z,99187.38
2023-03-16T15:40:51.380Z,99181.00
2023-03-16T15:43:22.895Z,99186.94
2023-03-16T15:45:52.244Z,99195.81
2023-03-16T15:48:24.689Z,99194.56
2023-03-16T15:50:54.943Z,99203.22
2023-03-16T15:53:31.100Z,99202.72
2023-03-16T15:56:03.250Z,99212.13
2023-03-16T15:58:34.302Z,99208.69
2023-03-16T16:01:04.027Z,99215.94
2023-03-16T16:03:35.125Z,99221.06
2023-03-16T16:06:03.830Z,99230.16
2023-03-16T16:08:32.237Z,99224.28
2023-03-16T16:11:00.461Z,99230.72
2023-03-16T16:13:43.616Z,99234.25
2023-03-16T16:16:14.606Z,99242.03
2023-03-16T16:18:44.940Z,99240.44
2023-03-16T16:21:18.036Z,99254.38
2023-03-16T16:23:46.651Z,99251.69
2023-03-16T16:26:27.852Z,99258.13
2023-03-16T16:29:01.133Z,99260.53
2023-03-16T16:31:32.407Z,99260.84
2023-03-16T16:34:02.169Z,99271.31
2023-03-16T16:36:32.507Z,99273.69
2023-03-16T16:39:00.795Z,99279.84
2023-03-16T16:41:31.532Z,99286.56
2023-03-16T16:44:05.165Z,99287.09
2023-03-16T16:46:37.811Z,99295.69
2023-03-16T16:49:14.152Z,99294.66
2023-03-16T16:51:42.812Z,99297.34
2023-03-16T16:54:19.587Z,99304.53
2023-03-16T16:56:48.594Z,99302.69
2023-03-16T16:59:19.418Z,99306.72
2023-03-16T17:01:50.823Z,99315.00
2023-03-16T17:04:23.442Z,99319.34
2023-03-16T17:06:55.587Z,99322.59
2023-03-16T17:09:23.892Z,99321.00
2023-03-16T17:11:52.447Z,99319.97
2023-03-16T17:14:22.000Z,99326.13
2023-03-16T17:16:51.983Z,99333.38
2023-03-16T17:19:23.574Z,99335.25
2023-03-16T17:21:52.432Z,99340.38
2023-03-16T17:24:21.081Z,99337.69
2023-03-16T17:26:52.430Z,99346.22
2023-03-16T17:29:24.466Z,99346.78
2023-03-16T17:31:53.303Z,99347.59
2023-03-16T17:34:24.502Z,99356.44
2023-03-16T17:36:52.948Z,99356.97
2023-03-16T17:39:23.290Z,99360.44
2023-03-16T17:41:55.775Z,99359.09
2023-03-16T17:44:24.015Z,99360.97
2023-03-16T17:46:52.098Z,99372.50
2023-03-16T17:49:22.316Z,99370.06
2023-03-16T17:51:51.805Z,99366.06
2023-03-16T17:54:19.864Z,99376.25
2023-03-16T17:56:49.185Z,99373.56
2023-03-16T17:59:20.197Z,99377.84
2023-03-16T18:01:48.904Z,99379.19
2023-03-16T18:04:18.443Z,99383.19
2023-03-16T18:06:48.221Z,99382.91
2023-03-16T18:09:18.855Z,99389.88
2023-03-16T18:11:50.065Z,99383.19
2023-03-16T18:14:25.489Z,99377.56
2023-03-16T18:16:54.672Z,99398.16
2023-03-16T18:19:25.501Z,99389.06
2023-03-16T18:21:54.821Z,99393.34
2023-03-16T18:24:26.848Z,99397.91
2023-03-16T18:26:55.359Z,99402.72
2023-03-16T18:29:24.151Z,99405.66
2023-03-16T18:31:56.312Z,99404.31
2023-03-16T18:34:27.527Z,99409.69
2023-03-16T18:36:59.714Z,99400.59
2023-03-16T18:39:29.133Z,99398.16
2023-03-16T18:41:57.284Z,99415.31
2023-03-16T18:44:27.087Z,99403.28
2023-03-16T18:47:02.388Z,99417.72
2023-03-16T18:49:33.912Z,99424.41
2023-03-16T18:52:02.289Z,99424.94
2023-03-16T18:54:35.635Z,99417.97
2023-03-16T18:57:05.771Z,99422.25
2023-03-16T18:59:34.024Z,99428.13
2023-03-16T19:02:02.350Z,99428.13
2023-03-16T19:04:32.956Z,99421.19
2023-03-16T19:07:01.279Z,99426.00
2023-03-16T19:09:32.915Z,99431.88
2023-03-16T19:12:03.195Z,99421.19
2023-03-16T19:14:34.200Z,99429.47
2023-03-16T19:17:02.796Z,99434.28
2023-03-16T19:19:31.052Z,99436.44
2023-03-16T19:22:04.998Z,99433.47
2023-03-16T19:24:42.829Z,99439.91
2023-03-16T19:27:21.235Z,99442.59
2023-03-16T19:29:52.049Z,99447.16
2023-03-16T19:32:21.942Z,99448.22
2023-03-16T19:34:50.196Z,99451.97
2023-03-16T19:37:19.855Z,99449.56
2023-03-16T19:39:49.729Z,99451.19
2023-03-16T19:42:23.337Z,99453.03
2023-03-16T19:44:52.227Z,99448.50
2023-03-16T19:47:27.747Z,99444.22
2023-03-16T19:49:56.144Z,99442.88
2023-03-16T19:52:24.341Z,99451.72
2023-03-16T19:54:53.829Z,99448.75
2023-03-16T19:57:22.253Z,99449.03
2023-03-16T19:59:54.702Z,99454.91
2023-03-16T20:02:28.543Z,99450.91
2023-03-16T20:04:57.504Z,99450.91
2023-03-16T20:07:26.067Z,99433.78
2023-03-16T20:09:55.588Z,99446.34
2023-03-16T20:12:25.437Z,99451.19
2023-03-16T20:14:55.687Z,99458.66
2023-03-16T20:17:26.106Z,99458.66
2023-03-16T20:19:54.363Z,99460.00
2023-03-16T20:22:24.313Z,99466.16
2023-03-16T20:24:54.469Z,99458.66
2023-03-16T20:27:24.954Z,99469.94
2023-03-16T20:29:53.283Z,99469.38
2023-03-16T20:32:23.494Z,99489.19
2023-03-16T20:34:53.720Z,99478.75
2023-03-16T20:37:24.906Z,99480.63
2023-03-16T20:39:56.533Z,99487.84
2023-03-16T20:42:30.485Z,99487.84
2023-03-16T20:44:59.220Z,99499.63
2023-03-16T20:47:28.417Z,99495.91
2023-03-16T20:49:58.415Z,99504.19
2023-03-16T20:52:30.827Z,99497.75
2023-03-16T20:54:59.482Z,99493.72
2023-03-16T20:57:29.808Z,99505.00
2023-03-16T21:00:00.749Z,99509.53
2023-03-16T21:02:30.785Z,99510.06
2023-03-16T21:05:01.150Z,99514.91
2023-03-16T21:07:29.480Z,99518.63
2023-03-16T21:09:57.667Z,99518.38
2023-03-16T21:12:29.732Z,99511.94
2023-03-16T21:14:58.719Z,99519.72
2023-03-16T21:17:31.346Z,99522.66
2023-03-16T21:19:59.806Z,99516.25
2023-03-16T21:22:30.208Z,99523.47
2023-03-16T21:24:58.697Z,99521.59
2023-03-16T21:27:31.313Z,99529.06
2023-03-16T21:30:04.287Z,99527.19
2023-03-16T21:32:34.174Z,99533.09
2023-03-16T21:35:02.442Z,99534.16
2023-03-16T21:37:30.667Z,99537.94
2023-03-16T21:40:01.162Z,99537.38
2023-03-16T21:42:31.071Z,99540.84
2023-03-16T21:44:59.286Z,99539.25
2023-03-16T21:47:29.818Z,99538.44
2023-03-16T21:49:59.361Z,99550.50
2023-03-16T21:52:30.325Z,99538.44
2023-03-16T21:55:00.079Z,99536.28
2023-03-16T21:57:28.345Z,99535.78
2023-03-16T21:59:58.045Z,99538.72
2023-03-16T22:02:28.162Z,99532.56
2023-03-16T22:04:57.911Z,99536.28
2023-03-16T22:07:26.409Z,99544.59
2023-03-16T22:09:54.469Z,99546.19
2023-03-16T22:12:22.581Z,99542.72
2023-03-16T22:14:50.698Z,99545.97
2023-03-16T22:17:23.178Z,99545.97
2023-03-16T22:19:51.240Z,99551.56
2023-03-16T22:22:19.506Z,99549.16
2023-03-16T22:24:48.161Z,99547.56
2023-03-16T22:27:21.527Z,99549.16
2023-03-16T22:29:51.265Z,99538.72
2023-03-16T22:32:23.026Z,99537.91
2023-03-16T22:34:53.891Z,99551.03
2023-03-16T22:37:25.262Z,99550.53
2023-03-16T22:39:53.790Z,99550.22
2023-03-16T22:42:29.269Z,99556.13
2023-03-16T22:44:57.825Z,99559.34
2023-03-16T22:47:32.358Z,99564.16
2023-03-16T22:50:00.475Z,99575.97
2023-03-16T22:52:31.956Z,99567.94
2023-03-16T22:55:01.978Z,99569.25
2023-03-16T22:57:31.336Z,99578.91
2023-03-16T23:00:00.749Z,99574.34
2023-03-16T23:02:30.678Z,99584.25
2023-03-16T23:04:58.810Z,99578.91
2023-03-16T23:07:27.350Z,99588.00
2023-03-16T23:09:55.775Z,99588.00
2023-03-16T23:12:23.927Z,99586.41
2023-03-16T23:14:52.081Z,99593.09
2023-03-16T23:17:22.437Z,99591.19
2023-03-16T23:19:52.080Z,99589.34
2023-03-16T23:22:20.173Z,99590.94
2023-03-16T23:24:48.174Z,99591.47
2023-03-16T23:27:19.031Z,99599.50
2023-03-16T23:29:47.542Z,99600.56
2023-03-16T23:32:17.196Z,99600.84
2023-03-16T23:34:46.108Z,99604.59
2023-03-16T23:37:15.930Z,99600.03
2023-03-16T23:39:44.060Z,99598.16
2023-03-16T23:42:12.643Z,99603.25
2023-03-16T23:44:40.957Z,99608.06
2023-03-16T23:47:11.978Z,99611.03
2023-03-16T23:49:42.266Z,99608.63
2023-03-16T23:52:12.313Z,99604.06
2023-03-16T23:54:41.820Z,99608.31
2023-03-16T23:57:10.458Z,99607.28
2023-03-16T23:59:38.692Z,99618.25
